Time;durP1;ratioP1;P1;durP2;ratioP2;P2;SDS_P1;SDS_P2;PMS_P1;PMS_P2;Temp;Humidity;BMP_temperature;BMP_pressure;BME280_temperature;BME280_humidity;BME280_pressure;Samples;Min_cycle;Max_cycle;Signal;HPM_P1;HPM_P2
2022/12/31 00:02:14;;;;;;;;;0.00;0.00;;;;;16.25;95.73;15510.38;4856362;29;45398;-91
2022/12/31 00:04:40;;;;;;;;;0.00;0.00;;;;;16.78;96.00;14438.28;4858044;29;45698;-87
2022/12/31 00:07:05;;;;;;;;;1.00;0.00;;;;;16.78;96.34;15023.03;4834226;29;45911;-87
2022/12/31 00:09:30;;;;;;;;;0.00;0.00;;;;;16.62;96.62;16190.53;4839371;29;45514;-86
2022/12/31 00:11:56;;;;;;;;;0.00;0.00;;;;;16.85;96.27;16094.75;4856548;29;45495;-87
2022/12/31 00:14:21;;;;;;;;;0.00;0.00;;;;;16.83;95.46;14721.59;4844175;29;46130;-86
2022/12/31 00:16:46;;;;;;;;;0.00;0.00;;;;;16.37;95.63;14510.78;4842309;29;45414;-86
2022/12/31 00:19:12;;;;;;;;;0.33;0.33;;;;;16.43;95.39;14115.06;4848520;29;45433;-87
2022/12/31 00:21:38;;;;;;;;;0.00;0.00;;;;;16.63;94.98;11438.66;4832476;29;46654;-86
2022/12/31 00:24:05;;;;;;;;;2.00;0.00;;;;;16.64;95.24;11041.47;4855053;29;45564;-87
2022/12/31 00:26:32;;;;;;;;;0.00;0.00;;;;;16.83;94.82;10345.94;4850297;29;45447;-87
2022/12/31 00:28:59;;;;;;;;;0.00;0.00;;;;;16.84;95.23;9593.59;4839662;29;45491;-86
2022/12/31 00:31:30;;;;;;;;;0.00;0.00;;;;;16.84;94.60;8286.31;4852991;29;46226;-85
2022/12/31 00:33:56;;;;;;;;;2.00;0.00;;;;;16.83;94.90;7581.38;4841769;29;45485;-86
2022/12/31 00:36:25;;;;;;;;;1.00;0.00;;;;;16.84;94.42;7018.91;4860932;29;45446;-86
2022/12/31 00:38:52;;;;;;;;;0.00;0.00;;;;;16.84;94.44;6046.34;4862496;29;45391;-87
2022/12/31 00:41:19;;;;;;;;;0.33;0.00;;;;;16.86;94.11;5765.41;4844812;29;46165;-86
2022/12/31 00:43:45;;;;;;;;;0.33;0.00;;;;;16.88;94.22;5786.66;4855826;29;45526;-87
2022/12/31 00:46:11;;;;;;;;;2.33;0.00;;;;;16.21;93.77;5328.13;4863912;29;45467;-87
2022/12/31 00:48:37;;;;;;;;;3.00;0.00;;;;;16.46;94.36;8197.94;4838991;29;46516;-86
2022/12/31 00:51:06;;;;;;;;;0.33;0.00;;;;;16.56;95.06;11415.81;4860798;29;46208;-86
2022/12/31 00:53:31;;;;;;;;;0.00;0.00;;;;;16.31;95.45;12935.63;4854595;29;45411;-86
2022/12/31 00:56:11;;;;;;;;;1.25;0.00;;;;;16.26;95.33;12363.50;4847599;29;45519;-86
2022/12/31 00:58:38;;;;;;;;;1.67;0.00;;;;;16.25;94.89;11277.25;4842925;29;45463;-87
2022/12/31 01:01:25;;;;;;;;;4.00;1.00;;;;;16.84;95.27;10919.84;4850553;29;45542;-86
2022/12/31 01:03:53;;;;;;;;;0.00;0.00;;;;;16.84;94.93;9151.75;4851622;29;45431;-85
2022/12/31 01:06:19;;;;;;;;;0.00;0.00;;;;;16.86;95.22;9002.09;4847766;29;45640;-85
2022/12/31 01:08:47;;;;;;;;;1.00;1.00;;;;;16.88;94.40;7582.25;4852289;29;45476;-86
2022/12/31 01:11:19;;;;;;;;;0.00;0.00;;;;;16.89;94.35;5434.63;4839268;29;47372;-86
2022/12/31 01:13:45;;;;;;;;;1.00;0.00;;;;;16.91;93.77;4620.16;4831926;29;45591;-85
2022/12/31 01:16:13;;;;;;;;;0.00;0.00;;;;;16.94;93.84;3498.69;4860551;29;45490;-85
2022/12/31 01:18:39;;;;;;;;;0.00;0.00;;;;;16.43;93.57;2157.38;4855658;29;45520;-86
2022/12/31 01:21:06;;;;;;;;;1.33;0.00;;;;;16.67;93.71;1652.84;4861308;29;46459;-85
2022/12/31 01:23:32;;;;;;;;;0.00;0.00;;;;;16.82;93.01;1488.59;4859241;29;45482;-87
2022/12/31 01:26:03;;;;;;;;;1.00;0.00;;;;;16.18;93.28;1633.28;4838593;29;45893;-86
2022/12/31 01:28:29;;;;;;;;;0.00;0.00;;;;;17.05;92.79;219.47;4861084;29;45461;-88
2022/12/31 01:30:55;;;;;;;;;1.00;0.00;;;;;17.07;92.54;-819.91;4861761;29;45418;-88
2022/12/31 01:33:20;;;;;;;;;0.00;0.00;;;;;16.53;92.44;-2486.88;4859164;29;45496;-86
2022/12/31 01:35:45;;;;;;;;;1.00;1.00;;;;;15.98;92.56;-2854.19;4869012;29;45522;-87
2022/12/31 01:38:11;;;;;;;;;0.00;0.00;;;;;17.11;92.72;-4067.94;4865703;29;45520;-86
2022/12/31 01:40:38;;;;;;;;;2.00;0.00;;;;;16.59;92.03;-5377.25;4849967;29;45427;-87
2022/12/31 01:43:59;;;;;;;;;0.00;0.00;;;;;16.97;92.30;-5457.19;4850978;29;45328;-87
2022/12/31 01:46:33;;;;;;;;;0.00;0.00;;;;;17.21;92.06;-6399.25;4803593;29;45544;-87
2022/12/31 01:49:21;;;;;;;;;0.33;0.00;;;;;17.20;91.67;-6760.94;4807588;29;45383;-87
2022/12/31 01:51:51;;;;;;;;;0.00;0.00;;;;;17.21;91.45;-7526.34;4802762;29;48333;-87
2022/12/31 01:54:21;;;;;;;;;0.00;0.00;;;;;16.97;91.45;-7425.13;4803938;29;45476;-87
2022/12/31 01:56:49;;;;;;;;;0.00;0.00;;;;;17.22;91.29;-8100.25;4803632;29;45482;-86
2022/12/31 01:59:17;;;;;;;;;1.25;0.00;;;;;17.24;91.23;-8092.56;4811113;29;45521;-86
2022/12/31 02:01:43;;;;;;;;;0.00;0.00;;;;;17.25;91.45;-8768.66;4792533;29;46306;-86
2022/12/31 02:04:11;;;;;;;;;0.00;0.00;;;;;17.24;91.29;-8820.97;4806364;29;45506;-87
2022/12/31 02:07:12;;;;;;;;;0.00;0.00;;;;;17.24;91.41;-9575.44;4803884;29;45539;-87
2022/12/31 02:09:39;;;;;;;;;0.00;0.00;;;;;17.25;91.45;-9161.69;4749918;29;45545;-87
2022/12/31 02:12:07;;;;;;;;;0.00;0.00;;;;;17.26;91.65;-9266.53;4749192;29;45537;-87
2022/12/31 02:14:36;;;;;;;;;0.00;0.00;;;;;17.28;91.44;-9209.09;4734378;29;46101;-87
2022/12/31 02:17:26;;;;;;;;;0.00;0.00;;;;;17.25;91.46;-10235.56;4764707;29;45463;-87
2022/12/31 02:20:19;;;;;;;;;0.00;0.00;;;;;17.24;91.37;-10761.84;4755640;29;45556;-87
2022/12/31 02:22:50;;;;;;;;;2.75;0.00;;;;;17.23;90.72;-11877.03;4781107;29;47585;-87
2022/12/31 02:26:03;;;;;;;;;1.00;0.00;;;;;17.24;90.66;-12515.97;4792112;29;45786;-88
2022/12/31 02:29:06;;;;;;;;;1.50;0.00;;;;;17.23;90.86;-12882.22;4805339;29;45590;-87
2022/12/31 02:31:42;;;;;;;;;0.00;0.00;;;;;17.25;90.12;-13746.13;4790888;29;45721;-86
2022/12/31 02:34:18;;;;;;;;;0.00;0.00;;;;;17.02;90.36;-13488.53;4804471;29;45588;-86
2022/12/31 02:36:46;;;;;;;;;0.00;0.00;;;;;16.62;90.15;-14009.94;4806321;29;45550;-87
2022/12/31 02:39:13;;;;;;;;;1.00;0.00;;;;;17.24;90.21;-14857.72;4805775;29;45377;-86
2022/12/31 02:41:50;;;;;;;;;0.00;0.00;;;;;17.27;90.20;-14939.50;4805516;29;45665;-86
2022/12/31 02:44:31;;;;;;;;;1.00;0.00;;;;;17.28;90.32;-15290.09;4810026;29;47095;-86
2022/12/31 02:47:08;;;;;;;;;0.00;0.00;;;;;17.26;89.74;-17130.75;4856446;29;45466;-86
2022/12/31 02:50:01;;;;;;;;;0.00;0.00;;;;;17.27;89.27;-17805.41;4864269;29;45507;-86
2022/12/31 02:53:00;;;;;;;;;0.00;0.00;;;;;17.28;89.49;-18589.78;4844168;29;45509;-86
2022/12/31 02:55:47;;;;;;;;;0.00;0.00;;;;;17.22;88.88;-18700.63;4860561;29;45725;-86
2022/12/31 02:58:20;;;;;;;;;0.00;0.00;;;;;16.86;89.04;-19556.16;4839003;29;45558;-87
2022/12/31 03:03:35;;;;;;;;;0.00;0.00;;;;;16.84;88.59;-19659.41;4854291;29;45441;-87
2022/12/31 03:06:02;;;;;;;;;0.00;0.00;;;;;17.35;88.46;-19672.53;4861296;29;45634;-87
2022/12/31 03:08:28;;;;;;;;;0.00;0.00;;;;;17.37;88.72;-19673.06;4844185;29;45461;-86
2022/12/31 03:10:55;;;;;;;;;1.00;0.00;;;;;17.35;88.51;-19672.66;4857593;29;45528;-87
2022/12/31 03:13:24;;;;;;;;;0.00;0.00;;;;;17.37;88.09;-19673.19;4846401;29;45482;-87
2022/12/31 03:15:49;;;;;;;;;1.00;0.00;;;;;17.39;88.20;-19673.72;4859674;29;45825;-86
2022/12/31 03:22:26;;;;;;;;;0.00;0.00;;;;;17.38;88.00;-19673.34;4837669;29;45917;-86
2022/12/31 03:26:38;;;;;;;;;0.00;0.00;;;;;17.26;86.98;-19670.25;4862204;29;45362;-86
2022/12/31 03:29:04;;;;;;;;;2.00;0.00;;;;;17.39;86.86;-19673.72;4845976;29;45803;-86
2022/12/31 03:31:29;;;;;;;;;0.00;0.00;;;;;17.09;86.98;-19665.97;4862713;29;45391;-86
2022/12/31 03:33:54;;;;;;;;;0.00;0.00;;;;;17.20;86.69;-19668.78;4862272;29;45350;-86
2022/12/31 03:36:20;;;;;;;;;1.50;0.00;;;;;17.04;86.72;-19664.50;4857066;29;45481;-86
2022/12/31 03:38:45;;;;;;;;;0.00;0.00;;;;;17.13;86.11;-19666.78;4842112;29;45455;-86
2022/12/31 03:41:10;;;;;;;;;0.00;0.00;;;;;17.33;86.74;-19672.00;4855849;29;45402;-86
2022/12/31 03:43:36;;;;;;;;;0.00;0.00;;;;;17.40;86.05;-19674.00;4855606;29;45449;-86
2022/12/31 03:46:01;;;;;;;;;0.00;0.00;;;;;16.32;85.55;-19645.75;4860433;29;45309;-86
2022/12/31 03:48:27;;;;;;;;;0.50;0.00;;;;;17.45;86.07;-19675.22;4860786;29;45520;-87
2022/12/31 03:50:52;;;;;;;;;0.00;0.00;;;;;16.97;85.69;-19662.75;4863347;29;45435;-86
2022/12/31 03:53:18;;;;;;;;;0.00;0.00;;;;;17.46;85.94;-19675.59;4861905;29;45314;-87
2022/12/31 03:55:43;;;;;;;;;3.00;0.00;;;;;17.46;85.81;-19675.59;4835074;29;46637;-86
2022/12/31 03:58:09;;;;;;;;;0.33;0.33;;;;;17.46;85.66;-19675.47;4855530;29;45362;-86
2022/12/31 04:00:35;;;;;;;;;2.00;0.00;;;;;17.47;85.53;-19675.75;4863130;29;45328;-86
2022/12/31 04:03:00;;;;;;;;;1.67;0.00;;;;;17.46;85.26;-19675.47;4863255;29;45486;-87
2022/12/31 04:05:25;;;;;;;;;1.00;0.00;;;;;17.45;84.90;-19675.34;4858676;29;46248;-88
2022/12/31 04:07:51;;;;;;;;;0.00;0.00;;;;;16.32;84.94;-19645.59;4844556;29;46115;-87
2022/12/31 04:10:17;;;;;;;;;1.33;0.00;;;;;17.43;85.22;-19674.81;4861998;29;45523;-87
2022/12/31 04:12:43;;;;;;;;;0.00;0.00;;;;;17.12;84.63;-19666.63;4857769;29;45344;-86
2022/12/31 04:15:10;;;;;;;;;0.33;0.33;;;;;16.87;84.72;-19660.09;4854619;29;46286;-86
2022/12/31 04:17:35;;;;;;;;;0.00;0.00;;;;;17.30;85.26;-19671.47;4861047;29;45532;-87
2022/12/31 04:20:02;;;;;;;;;1.00;1.00;;;;;17.17;84.63;-19667.84;4862881;29;45308;-87
2022/12/31 04:22:27;;;;;;;;;0.50;0.00;;;;;17.40;84.80;-19673.88;4845192;29;45330;-87
2022/12/31 04:24:52;;;;;;;;;0.00;0.00;;;;;16.81;84.10;-19658.59;4862300;29;45540;-87
2022/12/31 04:27:18;;;;;;;;;0.00;0.00;;;;;17.35;84.83;-19672.66;4859405;29;45484;-87
2022/12/31 04:29:43;;;;;;;;;2.00;0.00;;;;;16.80;84.22;-19658.34;4846280;29;45368;-87
2022/12/31 04:32:09;;;;;;;;;2.33;0.00;;;;;17.36;84.99;-19672.94;4862434;29;45508;-86
2022/12/31 04:34:35;;;;;;;;;2.00;0.00;;;;;17.36;84.85;-19672.78;4858006;29;45555;-86
2022/12/31 04:37:01;;;;;;;;;0.75;0.75;;;;;17.35;84.43;-19672.66;4854714;29;45643;-85
2022/12/31 04:39:26;;;;;;;;;0.25;0.00;;;;;17.25;84.67;-19669.97;4848533;29;45524;-87
2022/12/31 04:41:52;;;;;;;;;0.50;0.00;;;;;17.26;84.58;-19670.25;4860355;29;45447;-86
2022/12/31 04:44:18;;;;;;;;;0.00;0.00;;;;;17.39;84.46;-19673.59;4861363;29;45423;-87
2022/12/31 04:46:43;;;;;;;;;0.00;0.00;;;;;17.03;84.09;-19664.38;4861985;29;45493;-87
2022/12/31 04:49:08;;;;;;;;;1.33;0.00;;;;;16.87;84.22;-19660.09;4840385;29;45491;-87
2022/12/31 04:51:34;;;;;;;;;0.00;0.00;;;;;17.38;84.15;-19673.34;4834330;29;45437;-86
2022/12/31 04:54:00;;;;;;;;;0.00;0.00;;;;;17.39;83.93;-19673.59;4846533;29;45558;-86
2022/12/31 04:56:26;;;;;;;;;0.00;0.00;;;;;16.95;84.34;-19662.22;4857221;29;45339;-86
2022/12/31 04:58:52;;;;;;;;;0.00;0.00;;;;;16.96;84.04;-19662.50;4854794;29;45507;-86
2022/12/31 05:01:17;;;;;;;;;0.33;0.00;;;;;16.76;83.76;-19657.13;4861021;29;45631;-86
2022/12/31 05:03:42;;;;;;;;;1.00;0.00;;;;;17.38;84.08;-19673.47;4858260;29;46446;-85
2022/12/31 05:06:14;;;;;;;;;2.00;0.00;;;;;16.73;84.23;-19656.47;4856565;29;45559;-86
2022/12/31 05:08:39;;;;;;;;;0.00;0.00;;;;;17.42;83.74;-19674.41;4835069;29;45644;-85
2022/12/31 05:11:05;;;;;;;;;2.00;0.33;;;;;17.35;84.22;-19672.53;4844359;29;45479;-86
2022/12/31 05:13:30;;;;;;;;;0.00;0.00;;;;;16.57;83.65;-19652.16;4853224;29;45536;-86
2022/12/31 05:15:56;;;;;;;;;0.25;0.25;;;;;17.12;84.07;-19666.63;4837833;29;45780;-87
2022/12/31 05:18:22;;;;;;;;;0.00;0.00;;;;;17.44;84.07;-19675.06;4845309;29;45645;-85
2022/12/31 05:20:48;;;;;;;;;1.00;1.00;;;;;17.44;83.67;-19674.94;4862032;29;45675;-84
2022/12/31 05:23:15;;;;;;;;;0.00;0.00;;;;;17.36;83.40;-19672.78;4851763;29;45512;-85
2022/12/31 05:25:42;;;;;;;;;1.00;1.00;;;;;16.30;83.26;-19645.06;4852963;29;45461;-85
2022/12/31 05:28:08;;;;;;;;;2.00;2.00;;;;;17.43;83.68;-19674.81;4847363;29;45477;-85
2022/12/31 05:30:34;;;;;;;;;1.00;1.00;;;;;17.43;83.47;-19674.66;4860227;29;45441;-85
2022/12/31 05:32:59;;;;;;;;;1.50;1.50;;;;;17.42;83.46;-19674.53;4857658;29;46234;-86
2022/12/31 05:35:25;;;;;;;;;0.67;0.67;;;;;17.41;83.01;-19674.28;4859484;29;45449;-85
2022/12/31 05:37:50;;;;;;;;;3.00;1.67;;;;;17.38;82.77;-19673.47;4861767;29;45429;-85
2022/12/31 05:40:16;;;;;;;;;0.33;0.33;;;;;17.39;82.93;-19673.72;4855369;29;45317;-86
2022/12/31 05:42:41;;;;;;;;;0.25;0.25;;;;;17.26;82.74;-19670.38;4851495;29;46196;-87
2022/12/31 05:45:07;;;;;;;;;0.33;0.00;;;;;16.74;83.21;-19656.59;4859440;29;45463;-85
2022/12/31 05:47:32;;;;;;;;;0.00;0.00;;;;;17.39;83.07;-19673.59;4860935;29;45354;-87
2022/12/31 05:49:58;;;;;;;;;1.00;1.00;;;;;17.38;82.72;-19673.47;4859441;29;45600;-86
2022/12/31 05:52:23;;;;;;;;;1.00;1.00;;;;;17.39;82.54;-19673.72;4864464;29;45380;-85
2022/12/31 05:54:49;;;;;;;;;1.00;1.00;;;;;17.01;82.90;-19663.81;4854507;29;45353;-85
2022/12/31 05:57:14;;;;;;;;;1.00;1.00;;;;;17.07;82.39;-19665.31;4864411;29;45475;-85
2022/12/31 05:59:40;;;;;;;;;1.00;1.00;;;;;17.20;82.29;-19668.66;4855094;29;45445;-84
2022/12/31 06:02:05;;;;;;;;;0.75;0.75;;;;;17.40;82.57;-19674.00;4864643;29;45896;-85
2022/12/31 06:04:30;;;;;;;;;0.00;0.00;;;;;17.38;82.48;-19673.34;4863775;29;45267;-85
2022/12/31 06:06:56;;;;;;;;;1.00;1.00;;;;;17.11;82.14;-19666.25;4864568;29;45323;-85
2022/12/31 06:09:21;;;;;;;;;1.00;1.00;;;;;17.37;82.59;-19673.19;4857129;29;45488;-85
2022/12/31 06:11:47;;;;;;;;;0.00;0.00;;;;;17.37;82.15;-19673.19;4862222;29;45755;-85
2022/12/31 06:14:13;;;;;;;;;0.67;0.67;;;;;17.36;82.72;-19672.94;4859347;29;45385;-85
2022/12/31 06:16:39;;;;;;;;;1.00;1.00;;;;;17.21;82.30;-19669.06;4838084;29;45406;-85
2022/12/31 06:19:05;;;;;;;;;1.00;1.00;;;;;16.83;82.08;-19659.16;4864684;29;45723;-85
2022/12/31 06:21:31;;;;;;;;;1.00;1.00;;;;;17.36;82.71;-19672.94;4862424;29;46181;-85
2022/12/31 06:23:57;;;;;;;;;1.00;1.00;;;;;16.87;82.36;-19660.22;4857533;29;45589;-85
2022/12/31 06:26:23;;;;;;;;;0.67;0.67;;;;;17.37;81.95;-19673.19;4864544;29;45520;-85
2022/12/31 06:28:48;;;;;;;;;0.33;0.33;;;;;17.38;82.35;-19673.47;4852406;29;45493;-87
2022/12/31 06:31:14;;;;;;;;;1.00;1.00;;;;;17.09;82.03;-19665.97;4855066;29;45788;-87
2022/12/31 06:33:40;;;;;;;;;2.00;2.00;;;;;17.34;82.17;-19672.25;4863105;29;45480;-88
2022/12/31 06:36:10;;;;;;;;;1.00;1.00;;;;;17.12;81.83;-19666.50;4847220;29;45438;-88
2022/12/31 06:38:38;;;;;;;;;1.00;1.00;;;;;17.17;81.91;-19667.84;4862568;29;45492;-87
2022/12/31 06:41:05;;;;;;;;;1.00;1.00;;;;;17.35;81.91;-19672.66;4855556;29;45476;-88
2022/12/31 06:43:30;;;;;;;;;1.00;1.00;;;;;16.82;81.54;-19658.88;4860735;29;46482;-88
2022/12/31 06:45:59;;;;;;;;;0.00;0.00;;;;;17.30;81.98;-19671.31;4861348;29;45353;-88
2022/12/31 06:48:24;;;;;;;;;0.00;0.00;;;;;17.18;81.62;-19668.13;4864050;29;45421;-87
2022/12/31 06:50:50;;;;;;;;;0.00;0.00;;;;;17.26;81.58;-19670.25;4863893;29;45355;-87
2022/12/31 06:53:15;;;;;;;;;1.00;1.00;;;;;17.12;81.66;-19666.63;4858207;29;45408;-88
2022/12/31 06:55:41;;;;;;;;;2.00;1.00;;;;;17.19;81.52;-19668.38;4848542;29;45449;-87
2022/12/31 06:58:11;;;;;;;;;0.67;0.67;;;;;17.15;81.56;-19667.31;4860708;29;45409;-86
2022/12/31 07:00:42;;;;;;;;;1.00;1.00;;;;;16.78;81.42;-19657.78;4862285;29;47798;-88
2022/12/31 07:03:38;;;;;;;;;1.00;1.00;;;;;17.38;81.55;-19673.34;4838323;29;45466;-87
2022/12/31 07:06:15;;;;;;;;;3.00;3.00;;;;;17.36;81.93;-19672.78;4858769;29;45656;-87
2022/12/31 07:08:49;;;;;;;;;0.50;0.50;;;;;17.33;81.44;-19672.00;4863347;29;45463;-87
2022/12/31 07:11:22;;;;;;;;;3.33;3.33;;;;;17.35;81.43;-19672.66;4846517;29;46682;-87
2022/12/31 07:14:08;;;;;;;;;2.00;2.00;;;;;17.35;81.58;-19672.53;4849927;29;45452;-87
2022/12/31 07:16:56;;;;;;;;;3.33;2.00;;;;;17.35;81.67;-19672.66;4854417;29;45364;-87
2022/12/31 07:19:45;;;;;;;;;2.00;2.00;;;;;17.34;81.60;-19672.25;4863595;29;45506;-87
2022/12/31 07:22:14;;;;;;;;;1.00;1.00;;;;;16.97;81.29;-19662.75;4845349;29;47715;-87
2022/12/31 07:24:41;;;;;;;;;5.00;1.67;;;;;16.58;81.36;-19652.56;4857708;29;45480;-87
2022/12/31 07:27:43;;;;;;;;;2.33;2.33;;;;;17.30;81.60;-19671.47;4862077;29;45584;-86
2022/12/31 07:30:13;;;;;;;;;3.00;3.00;;;;;17.17;81.64;-19667.84;4849016;29;45341;-85
2022/12/31 07:33:16;;;;;;;;;0.67;0.67;;;;;17.26;81.60;-19670.38;4843174;29;46033;-86
2022/12/31 07:35:56;;;;;;;;;5.67;4.00;;;;;17.25;81.33;-19669.97;4861425;29;45312;-85
2022/12/31 07:38:53;;;;;;;;;2.33;1.00;;;;;17.26;81.86;-19670.25;4858311;29;45417;-86
2022/12/31 07:41:37;;;;;;;;;4.00;2.00;;;;;17.25;81.72;-19669.97;4852352;29;45633;-85
2022/12/31 07:44:06;;;;;;;;;1.33;1.00;;;;;17.25;81.64;-19669.97;4849886;29;47234;-86
2022/12/31 07:46:54;;;;;;;;;3.67;3.00;;;;;17.25;81.22;-19670.13;4843495;29;45980;-86
2022/12/31 07:49:20;;;;;;;;;2.67;2.67;;;;;16.95;80.94;-19662.22;4863031;29;45485;-85
2022/12/31 07:51:45;;;;;;;;;3.00;1.00;;;;;17.12;80.66;-19666.50;4844906;29;45438;-85
2022/12/31 07:54:12;;;;;;;;;2.00;0.67;;;;;17.25;80.86;-19669.97;4832517;29;45594;-85
2022/12/31 07:56:37;;;;;;;;;6.33;4.33;;;;;17.05;81.16;-19664.91;4836954;29;45521;-85
2022/12/31 07:59:31;;;;;;;;;2.00;2.00;;;;;17.27;80.84;-19670.53;4831032;29;45431;-85
2022/12/31 08:02:01;;;;;;;;;5.00;5.00;;;;;17.01;80.28;-19663.69;4857295;29;45420;-85
2022/12/31 08:04:45;;;;;;;;;3.00;3.00;;;;;17.27;80.42;-19670.66;4851011;29;46178;-85
2022/12/31 08:07:32;;;;;;;;;3.67;3.00;;;;;17.28;80.43;-19670.78;4852498;29;45446;-85
2022/12/31 08:10:15;;;;;;;;;2.00;2.00;;;;;17.27;80.26;-19670.53;4852037;29;45408;-85
2022/12/31 08:12:42;;;;;;;;;3.00;3.00;;;;;16.87;80.29;-19660.09;4847904;29;45828;-87
2022/12/31 08:15:16;;;;;;;;;2.33;2.00;;;;;17.29;80.11;-19671.06;4836821;29;47149;-85
2022/12/31 08:17:41;;;;;;;;;6.00;4.00;;;;;16.95;79.78;-19662.22;4853925;29;45586;-85
2022/12/31 08:20:12;;;;;;;;;3.00;2.67;;;;;17.30;79.98;-19671.47;4848174;29;45597;-86
2022/12/31 08:23:02;;;;;;;;;2.67;2.67;;;;;17.29;79.99;-19671.06;4848983;29;45560;-87
2022/12/31 08:25:58;;;;;;;;;6.00;4.00;;;;;17.29;79.69;-19671.06;4852314;29;45657;-87
2022/12/31 08:28:52;;;;;;;;;3.00;3.00;;;;;17.30;79.41;-19671.31;4852911;29;45614;-86
2022/12/31 08:31:46;;;;;;;;;4.00;3.00;;;;;16.72;79.02;-19656.06;4853392;29;46323;-87
2022/12/31 08:34:32;;;;;;;;;7.67;5.00;;;;;17.32;79.33;-19671.72;4855808;29;45797;-88
2022/12/31 08:37:09;;;;;;;;;6.00;5.00;;;;;17.13;79.24;-19666.78;4848003;29;45572;-88
2022/12/31 08:40:05;;;;;;;;;4.33;3.33;;;;;16.93;79.33;-19661.69;4834916;29;46154;-87
2022/12/31 08:42:39;;;;;;;;;3.00;3.00;;;;;17.33;79.12;-19672.00;4833722;29;45435;-87
2022/12/31 08:45:13;;;;;;;;;7.00;3.33;;;;;17.30;78.97;-19671.47;4844848;29;46685;-88
2022/12/31 08:48:04;;;;;;;;;4.33;4.33;;;;;17.29;79.24;-19671.06;4855412;29;45383;-88
2022/12/31 08:50:30;;;;;;;;;3.67;3.67;;;;;17.23;79.59;-19669.44;4853985;29;45488;-88
2022/12/31 08:52:57;;;;;;;;;4.33;3.67;;;;;16.77;79.57;-19657.53;4848174;29;45314;-88
2022/12/31 08:55:23;;;;;;;;;3.00;3.00;;;;;16.93;79.26;-19661.69;4848014;29;45615;-87
2022/12/31 08:57:54;;;;;;;;;3.33;3.33;;;;;17.26;79.08;-19670.38;4847657;29;46038;-87
2022/12/31 09:00:20;;;;;;;;;4.33;4.33;;;;;16.58;79.27;-19652.56;4856987;29;45494;-88
2022/12/31 09:02:54;;;;;;;;;5.00;3.67;;;;;17.28;78.95;-19670.78;4847346;29;45630;-88
2022/12/31 09:05:44;;;;;;;;;4.67;4.67;;;;;16.52;78.81;-19650.84;4846405;29;45609;-88
2022/12/31 09:08:24;;;;;;;;;3.67;3.67;;;;;17.16;79.16;-19667.72;4831375;29;47322;-87
2022/12/31 09:11:12;;;;;;;;;7.67;7.33;;;;;17.27;78.63;-19670.66;4845995;29;46824;-86
2022/12/31 09:13:51;;;;;;;;;6.67;6.67;;;;;17.26;78.90;-19670.38;4793860;29;45322;-88
2022/12/31 09:16:31;;;;;;;;;7.00;7.00;;;;;16.88;78.78;-19660.47;4798541;29;45574;-87
2022/12/31 09:18:56;;;;;;;;;7.00;7.00;;;;;17.10;78.33;-19666.09;4790001;29;47046;-87
2022/12/31 09:21:21;;;;;;;;;11.00;10.33;;;;;17.30;78.54;-19671.31;4780093;29;45420;-87
2022/12/31 09:23:47;;;;;;;;;8.67;8.67;;;;;17.12;78.31;-19666.50;4782748;29;45585;-87
2022/12/31 09:26:39;;;;;;;;;14.50;13.25;;;;;16.87;78.50;-19660.22;4790426;29;45484;-88
2022/12/31 09:29:30;;;;;;;;;8.50;7.75;;;;;17.25;77.78;-19669.97;4794638;29;45428;-87
2022/12/31 09:32:07;;;;;;;;;8.00;8.00;;;;;16.96;77.79;-19662.50;4797226;29;45607;-88
2022/12/31 09:34:56;;;;;;;;;8.25;8.25;;;;;17.41;77.47;-19674.13;4794001;29;45664;-87
2022/12/31 09:37:27;;;;;;;;;8.25;6.75;;;;;17.40;77.47;-19673.88;4802527;29;45704;-87
2022/12/31 09:39:58;;;;;;;;;10.00;7.50;;;;;17.16;77.34;-19667.56;4794965;29;45778;-87
2022/12/31 09:42:44;;;;;;;;;7.50;7.50;;;;;17.41;77.29;-19674.13;4804694;29;45538;-87
2022/12/31 09:45:18;;;;;;;;;13.75;12.75;;;;;17.40;76.92;-19673.88;4798539;29;45433;-86
2022/12/31 09:47:50;;;;;;;;;11.50;11.50;;;;;17.37;76.49;-19673.06;4801892;29;45530;-87
2022/12/31 09:50:36;;;;;;;;;13.50;12.00;;;;;17.36;76.50;-19672.94;4801057;29;47808;-86
2022/12/31 09:53:32;;;;;;;;;13.25;13.25;;;;;17.36;76.69;-19672.78;4854957;29;45426;-86
2022/12/31 09:56:21;;;;;;;;;20.25;19.25;;;;;17.35;75.92;-19672.66;4859059;29;45540;-85
2022/12/31 09:59:01;;;;;;;;;19.25;19.25;;;;;17.09;76.61;-19665.97;4863789;29;45507;-86
2022/12/31 10:01:34;;;;;;;;;10.75;10.75;;;;;16.97;75.95;-19662.75;4839459;29;47247;-86
2022/12/31 10:04:09;;;;;;;;;12.50;12.50;;;;;17.25;76.22;-19669.97;4841343;29;47571;-85
2022/12/31 10:06:46;;;;;;;;;13.50;13.50;;;;;17.27;75.87;-19670.66;4843378;29;45482;-87
2022/12/31 10:09:36;;;;;;;;;14.25;14.25;;;;;17.29;75.90;-19671.06;4853885;29;46133;-85
2022/12/31 10:12:17;;;;;;;;;16.75;14.00;;;;;17.31;75.68;-19671.59;4854554;29;45466;-86
2022/12/31 10:15:15;;;;;;;;;17.50;17.50;;;;;17.32;75.66;-19671.72;4859848;29;45589;-86
2022/12/31 10:18:01;;;;;;;;;11.25;10.50;;;;;17.30;75.26;-19671.47;4864724;29;45474;-85
2022/12/31 10:21:10;;;;;;;;;15.25;12.00;;;;;17.41;75.10;-19674.13;4847405;29;45581;-85
2022/12/31 10:23:54;;;;;;;;;8.75;8.00;;;;;17.45;74.69;-19675.34;4859341;29;46422;-86
2022/12/31 10:26:44;;;;;;;;;9.50;9.50;;;;;17.48;74.53;-19676.00;4855599;29;45509;-85
2022/12/31 10:29:32;;;;;;;;;8.50;8.50;;;;;17.54;74.46;-19677.47;4852822;29;45348;-89
2022/12/31 10:32:06;;;;;;;;;17.75;16.50;;;;;17.57;73.96;-19678.41;4856456;29;45510;-85
2022/12/31 10:34:51;;;;;;;;;8.25;8.25;;;;;17.63;74.08;-19680.03;4859639;29;46019;-85
2022/12/31 10:37:22;;;;;;;;;6.00;3.33;;;;;17.66;72.93;-19680.69;4855163;29;46358;-86
2022/12/31 10:40:07;;;;;;;;;4.00;4.00;;;;;17.66;73.84;-19680.81;4861591;29;45492;-86
2022/12/31 10:42:51;;;;;;;;;5.33;4.00;;;;;17.68;73.15;-19681.34;4844907;29;45567;-88
2022/12/31 10:45:20;;;;;;;;;5.00;3.33;;;;;17.66;72.97;-19680.69;4837994;29;48454;-88
2022/12/31 10:48:22;;;;;;;;;7.00;4.67;;;;;17.68;73.05;-19681.22;4854822;29;45572;-87
2022/12/31 10:51:23;;;;;;;;;3.33;3.33;;;;;17.70;72.42;-19681.91;4863461;29;45653;-88
2022/12/31 10:54:11;;;;;;;;;6.00;6.00;;;;;17.46;72.33;-19675.47;4770472;29;45602;-89
2022/12/31 10:57:09;;;;;;;;;4.00;4.00;;;;;17.67;72.55;-19681.09;4784547;29;46556;-89
2022/12/31 10:59:43;;;;;;;;;4.00;4.00;;;;;17.94;71.80;-19688.06;4786305;29;45481;-89
2022/12/31 11:02:32;;;;;;;;;5.00;4.00;;;;;18.04;71.62;-19690.72;4785691;29;45486;-86
2022/12/31 11:05:51;;;;;;;;;4.67;2.00;;;;;18.15;70.91;-19693.53;4785358;29;45448;-86
2022/12/31 11:08:39;;;;;;;;;3.00;3.00;;;;;17.76;70.63;-19683.38;4759577;29;47597;-86
2022/12/31 11:11:07;;;;;;;;;6.00;3.67;;;;;18.29;70.31;-19697.28;4762111;29;46587;-86
2022/12/31 11:13:33;;;;;;;;;4.67;3.00;;;;;18.35;70.59;-19698.88;4760430;29;45497;-86
2022/12/31 11:16:30;;;;;;;;;3.00;3.00;;;;;18.40;69.86;-19700.09;4765032;29;45581;-86
2022/12/31 11:19:09;;;;;;;;;9.67;8.33;;;;;18.33;69.69;-19698.34;4764519;29;46311;-86
2022/12/31 11:21:37;;;;;;;;;5.00;3.67;;;;;18.48;69.75;-19702.09;4759499;29;45667;-88
2022/12/31 11:24:21;;;;;;;;;8.33;8.33;;;;;18.51;69.46;-19702.88;4759797;29;45782;-87
2022/12/31 11:27:11;;;;;;;;;9.00;9.00;;;;;18.48;68.54;-19702.09;4763080;29;45658;-87
2022/12/31 11:29:40;;;;;;;;;10.25;9.25;;;;;18.45;68.95;-19701.28;4782715;29;47134;-86
2022/12/31 11:32:16;;;;;;;;;11.00;8.00;;;;;17.88;68.64;-19686.56;4805461;29;45435;-86
2022/12/31 11:35:02;;;;;;;;;11.25;10.25;;;;;18.49;68.26;-19702.47;4800137;29;45703;-86
2022/12/31 11:37:49;;;;;;;;;7.00;6.75;;;;;18.47;68.55;-19701.81;4805882;29;45646;-86
2022/12/31 11:40:32;;;;;;;;;8.00;7.25;;;;;18.54;68.20;-19703.81;4805052;29;45574;-85
2022/12/31 11:43:01;;;;;;;;;5.50;5.50;;;;;18.60;68.23;-19705.28;4849661;29;45439;-86
2022/12/31 11:45:47;;;;;;;;;9.75;8.00;;;;;18.82;66.96;-19711.03;4857937;29;45317;-85
2022/12/31 11:48:28;;;;;;;;;2.67;2.67;;;;;18.63;67.29;-19706.09;4841701;29;45694;-85
2022/12/31 11:51:24;;;;;;;;;4.50;4.50;;;;;18.67;66.65;-19707.16;4835656;29;47314;-85
2022/12/31 11:54:02;;;;;;;;;3.33;3.33;;;;;18.41;67.09;-19700.34;4848358;29;45492;-86
2022/12/31 11:57:01;;;;;;;;;6.00;3.67;;;;;18.74;67.07;-19709.03;4856092;29;45411;-85
2022/12/31 11:59:27;;;;;;;;;3.33;3.33;;;;;18.63;66.84;-19706.09;4854262;29;45593;-85
2022/12/31 12:02:15;;;;;;;;;3.67;3.67;;;;;18.84;66.18;-19711.44;4854894;29;47327;-85
2022/12/31 12:04:41;;;;;;;;;2.33;2.33;;;;;18.90;66.71;-19713.03;4845700;29;45638;-86
2022/12/31 12:07:14;;;;;;;;;3.67;3.67;;;;;18.95;66.08;-19714.50;4854187;29;45380;-85